createdAt,value
2019-01-24T00:00:14.988Z,16.91
2019-01-24T00:01:18.643Z,16.89
2019-01-24T00:02:22.250Z,16.89
2019-01-24T00:03:25.773Z,16.89
2019-01-24T00:04:29.265Z,16.88
2019-01-24T00:05:32.804Z,16.88
2019-01-24T00:06:36.447Z,16.88
2019-01-24T00:07:39.956Z,16.88
2019-01-24T00:08:43.486Z,16.87
2019-01-24T00:09:46.988Z,16.85
2019-01-24T00:10:50.621Z,16.85
2019-01-24T00:11:54.111Z,16.83
2019-01-24T00:12:57.672Z,16.83
2019-01-24T00:14:01.321Z,16.82
2019-01-24T00:15:07.639Z,16.81
2019-01-24T00:16:11.214Z,16.80
2019-01-24T00:17:14.755Z,16.80
2019-01-24T00:18:18.379Z,16.79
2019-01-24T00:19:21.915Z,16.79
2019-01-24T00:20:25.580Z,16.77
2019-01-24T00:21:29.144Z,16.76
2019-01-24T00:22:32.631Z,16.75
2019-01-24T00:23:36.195Z,16.74
2019-01-24T00:24:39.721Z,16.74
2019-01-24T00:25:43.199Z,16.73
2019-01-24T00:26:46.756Z,16.73
2019-01-24T00:27:50.438Z,16.72
2019-01-24T00:28:53.884Z,16.71
2019-01-24T00:29:57.410Z,16.69
2019-01-24T00:31:00.914Z,16.69
2019-01-24T00:32:04.477Z,16.69
2019-01-24T00:33:08.106Z,16.67
2019-01-24T00:34:11.606Z,16.67
2019-01-24T00:35:15.546Z,16.67
2019-01-24T00:36:19.169Z,16.66
2019-01-24T00:37:22.666Z,16.64
2019-01-24T00:38:26.228Z,16.64
2019-01-24T00:39:29.773Z,16.63
2019-01-24T00:40:33.404Z,16.63
2019-01-24T00:41:37.007Z,16.62
2019-01-24T00:42:40.545Z,16.62
2019-01-24T00:43:44.154Z,16.60
2019-01-24T00:44:47.618Z,16.60
2019-01-24T00:45:51.373Z,16.59
2019-01-24T00:46:54.926Z,16.58
2019-01-24T00:47:58.484Z,16.56
2019-01-24T00:49:02.028Z,16.56
2019-01-24T00:50:08.533Z,16.55
2019-01-24T00:51:12.059Z,16.54
2019-01-24T00:52:15.612Z,16.53
2019-01-24T00:53:19.102Z,16.53
2019-01-24T00:54:22.594Z,16.53
2019-01-24T00:55:26.166Z,16.51
2019-01-24T00:56:29.681Z,16.51
2019-01-24T00:57:33.171Z,16.50
2019-01-24T00:58:36.736Z,16.49
2019-01-24T00:59:40.290Z,16.48
2019-01-24T01:00:43.913Z,16.46
2019-01-24T01:01:47.504Z,16.46
2019-01-24T01:02:51.230Z,16.41
2019-01-24T01:03:54.716Z,16.46
2019-01-24T01:04:58.260Z,16.44
2019-01-24T01:06:02.219Z,16.43
2019-01-24T01:07:06.237Z,16.43
2019-01-24T01:08:09.846Z,16.42
2019-01-24T01:09:13.408Z,16.42
2019-01-24T01:10:17.342Z,16.41
2019-01-24T01:11:20.897Z,16.40
2019-01-24T01:12:24.490Z,16.39
2019-01-24T01:13:27.976Z,16.39
2019-01-24T01:14:31.461Z,16.38
2019-01-24T01:15:35.082Z,16.38
2019-01-24T01:16:38.640Z,16.38
2019-01-24T01:17:42.271Z,16.37
2019-01-24T01:18:45.897Z,16.36
2019-01-24T01:19:49.470Z,16.36
2019-01-24T01:20:54.658Z,16.32
2019-01-24T01:21:58.245Z,16.34
2019-01-24T01:23:01.927Z,16.33
2019-01-24T01:24:05.640Z,16.33
2019-01-24T01:25:11.577Z,16.32
2019-01-24T01:26:15.050Z,16.31
2019-01-24T01:27:18.662Z,16.31
2019-01-24T01:28:22.268Z,16.31
2019-01-24T01:29:25.741Z,16.31
2019-01-24T01:30:29.309Z,16.29
2019-01-24T01:31:32.866Z,16.29
2019-01-24T01:32:36.444Z,16.28
2019-01-24T01:33:39.948Z,16.27
2019-01-24T01:34:43.499Z,16.26
2019-01-24T01:35:47.040Z,16.26
2019-01-24T01:36:50.617Z,16.25
2019-01-24T01:37:54.271Z,16.24
2019-01-24T01:38:57.773Z,16.24
2019-01-24T01:40:01.344Z,16.25
2019-01-24T01:41:05.150Z,16.23
2019-01-24T01:42:08.651Z,16.23
2019-01-24T01:43:12.297Z,16.22
2019-01-24T01:44:15.877Z,16.22
2019-01-24T01:45:21.361Z,16.21
2019-01-24T01:46:24.822Z,16.20
2019-01-24T01:47:28.395Z,16.19
2019-01-24T01:48:31.931Z,16.18
2019-01-24T01:49:35.472Z,16.18
2019-01-24T01:50:39.056Z,16.18
2019-01-24T01:51:42.593Z,16.17
2019-01-24T01:52:46.230Z,16.18
2019-01-24T01:53:49.808Z,16.18
2019-01-24T01:54:53.343Z,16.16
2019-01-24T01:55:56.845Z,16.15
2019-01-24T01:57:00.404Z,16.16
2019-01-24T01:58:04.117Z,16.15
2019-01-24T01:59:07.650Z,16.13
2019-01-24T02:00:20.639Z,16.14
2019-01-24T02:01:24.102Z,16.13
2019-01-24T02:02:27.605Z,16.11
2019-01-24T02:03:31.167Z,16.11
2019-01-24T02:04:34.768Z,16.09
2019-01-24T02:05:38.263Z,16.10
2019-01-24T02:06:41.818Z,16.08
2019-01-24T02:07:45.387Z,16.07
2019-01-24T02:08:48.931Z,16.07
2019-01-24T02:09:52.495Z,16.06
2019-01-24T02:10:56.083Z,16.05
2019-01-24T02:11:59.687Z,16.04
2019-01-24T02:13:03.192Z,16.04
2019-01-24T02:14:06.968Z,16.03
2019-01-24T02:15:12.260Z,16.02
2019-01-24T02:16:15.769Z,16.02
2019-01-24T02:17:19.240Z,16.00
2019-01-24T02:18:22.786Z,16.00
2019-01-24T02:19:26.288Z,15.99
2019-01-24T02:20:29.847Z,15.97
2019-01-24T02:21:33.777Z,15.99
2019-01-24T02:22:37.609Z,15.97
2019-01-24T02:23:41.125Z,15.97
2019-01-24T02:24:44.775Z,15.96
2019-01-24T02:25:48.450Z,15.94
2019-01-24T02:26:51.902Z,15.94
2019-01-24T02:27:55.474Z,15.94
2019-01-24T02:28:59.049Z,15.93
2019-01-24T02:30:02.575Z,15.93
2019-01-24T02:31:06.216Z,15.92
2019-01-24T02:32:09.838Z,15.92
2019-01-24T02:33:13.409Z,15.91
2019-01-24T02:34:16.889Z,15.91
2019-01-24T02:35:20.508Z,15.90
2019-01-24T02:36:24.049Z,15.90
2019-01-24T02:37:27.534Z,15.89
2019-01-24T02:38:31.110Z,15.90
2019-01-24T02:39:34.644Z,15.89
2019-01-24T02:40:38.168Z,15.86
2019-01-24T02:41:41.700Z,15.87
2019-01-24T02:42:45.330Z,15.86
2019-01-24T02:43:48.837Z,15.85
2019-01-24T02:44:52.331Z,15.84
2019-01-24T02:45:55.950Z,15.83
2019-01-24T02:46:59.635Z,15.83
2019-01-24T02:48:03.085Z,15.81
2019-01-24T02:49:06.689Z,15.80
2019-01-24T02:50:13.418Z,15.79
2019-01-24T02:51:16.919Z,15.79
2019-01-24T02:52:20.511Z,15.78
2019-01-24T02:53:24.217Z,15.78
2019-01-24T02:54:27.895Z,15.76
2019-01-24T02:55:31.891Z,15.77
2019-01-24T02:56:35.399Z,15.78
2019-01-24T02:57:38.897Z,15.78
2019-01-24T02:58:42.384Z,15.78
2019-01-24T02:59:45.963Z,15.78
2019-01-24T03:00:49.582Z,15.78
2019-01-24T03:01:53.103Z,15.79
2019-01-24T03:02:56.579Z,15.79
2019-01-24T03:04:00.265Z,15.79
2019-01-24T03:05:05.527Z,15.80
2019-01-24T03:06:09.189Z,15.80
2019-01-24T03:07:12.739Z,15.82
2019-01-24T03:08:16.367Z,15.80
2019-01-24T03:09:19.930Z,15.80
2019-01-24T03:10:23.420Z,15.80
2019-01-24T03:11:26.941Z,15.79
2019-01-24T03:12:30.463Z,15.80
2019-01-24T03:13:33.999Z,15.79
2019-01-24T03:14:37.531Z,15.78
2019-01-24T03:15:41.025Z,15.77
2019-01-24T03:16:44.589Z,15.76
2019-01-24T03:17:48.244Z,15.75
2019-01-24T03:18:52.302Z,15.75
2019-01-24T03:19:55.783Z,15.73
2019-01-24T03:20:59.283Z,15.72
2019-01-24T03:22:02.805Z,15.72
2019-01-24T03:23:06.451Z,15.70
2019-01-24T03:24:09.952Z,15.72
2019-01-24T03:25:15.712Z,15.70
2019-01-24T03:26:19.353Z,15.68
2019-01-24T03:27:23.000Z,15.68
2019-01-24T03:28:26.515Z,15.69
2019-01-24T03:29:30.014Z,15.68
2019-01-24T03:30:33.567Z,15.68
2019-01-24T03:31:37.153Z,15.67
2019-01-24T03:32:40.676Z,15.66
2019-01-24T03:33:44.245Z,15.67
2019-01-24T03:34:47.887Z,15.65
2019-01-24T03:35:51.449Z,15.65
2019-01-24T03:36:54.951Z,15.65
2019-01-24T03:37:58.452Z,15.66
2019-01-24T03:39:02.006Z,15.65
2019-01-24T03:40:08.917Z,15.65
2019-01-24T03:41:12.404Z,15.65
2019-01-24T03:42:15.882Z,15.66
2019-01-24T03:43:19.437Z,15.67
2019-01-24T03:44:22.960Z,15.70
2019-01-24T03:45:26.535Z,15.73
2019-01-24T03:46:30.111Z,15.75
2019-01-24T03:47:33.632Z,15.77
2019-01-24T03:48:37.180Z,15.78
2019-01-24T03:49:40.706Z,15.81
2019-01-24T03:50:44.331Z,15.84
2019-01-24T03:51:47.812Z,15.87
2019-01-24T03:52:51.695Z,15.91
2019-01-24T03:53:55.249Z,15.95
2019-01-24T03:54:58.874Z,16.00
2019-01-24T03:56:02.607Z,16.09
2019-01-24T03:57:06.145Z,16.20
2019-01-24T03:58:09.889Z,16.27
2019-01-24T03:59:13.486Z,16.34
2019-01-24T04:00:22.802Z,16.46
2019-01-24T04:01:26.301Z,16.54
2019-01-24T04:02:29.913Z,16.71
2019-01-24T04:03:33.561Z,16.78
2019-01-24T04:04:37.145Z,16.85
2019-01-24T04:05:40.780Z,17.02
2019-01-24T04:06:44.324Z,17.10
2019-01-24T04:07:47.801Z,17.21
2019-01-24T04:08:51.377Z,17.34
2019-01-24T04:09:54.955Z,17.45
2019-01-24T04:10:58.527Z,17.52
2019-01-24T04:12:02.015Z,17.65
2019-01-24T04:13:05.585Z,17.73
2019-01-24T04:14:09.092Z,17.86
2019-01-24T04:15:15.431Z,17.91
2019-01-24T04:16:18.995Z,18.06
2019-01-24T04:17:22.470Z,18.11
2019-01-24T04:18:26.166Z,18.18
2019-01-24T04:19:29.623Z,18.27
2019-01-24T04:20:33.191Z,18.35
2019-01-24T04:21:36.724Z,18.35
2019-01-24T04:22:40.263Z,18.35
2019-01-24T04:23:43.759Z,18.41
2019-01-24T04:24:47.248Z,18.49
2019-01-24T04:25:50.719Z,18.52
2019-01-24T04:26:54.337Z,18.56
2019-01-24T04:27:57.798Z,18.63
2019-01-24T04:29:01.313Z,18.68
2019-01-24T04:30:07.915Z,18.67
2019-01-24T04:31:11.459Z,18.70
2019-01-24T04:32:15.059Z,18.75
2019-01-24T04:33:18.527Z,18.78
2019-01-24T04:34:22.005Z,18.75
2019-01-24T04:35:25.638Z,18.75
2019-01-24T04:36:29.247Z,18.74
2019-01-24T04:37:32.775Z,18.74
2019-01-24T04:38:36.297Z,18.73
2019-01-24T04:39:39.820Z,18.72
2019-01-24T04:40:43.397Z,18.73
2019-01-24T04:41:47.116Z,18.76
2019-01-24T04:42:50.754Z,18.77
2019-01-24T04:43:56.535Z,18.86
2019-01-24T04:45:00.010Z,18.85
2019-01-24T04:46:03.510Z,18.87
2019-01-24T04:47:07.006Z,18.85
2019-01-24T04:48:10.530Z,18.85
2019-01-24T04:49:14.162Z,18.85
2019-01-24T04:50:18.519Z,18.92
2019-01-24T04:51:22.015Z,18.87
2019-01-24T04:52:25.512Z,18.84
2019-01-24T04:53:29.077Z,18.85
2019-01-24T04:54:32.582Z,18.88
2019-01-24T04:55:36.134Z,18.91
2019-01-24T04:56:39.724Z,18.91
2019-01-24T04:57:43.227Z,18.89
2019-01-24T04:58:46.765Z,18.91
2019-01-24T04:59:50.271Z,18.87
2019-01-24T05:00:53.742Z,18.85
2019-01-24T05:01:57.314Z,18.84
2019-01-24T05:03:00.795Z,18.83
2019-01-24T05:04:04.527Z,18.84
2019-01-24T05:05:08.109Z,18.85
2019-01-24T05:06:11.617Z,18.86
2019-01-24T05:07:15.199Z,18.86
2019-01-24T05:08:18.715Z,18.86
2019-01-24T05:09:22.232Z,18.84
2019-01-24T05:10:25.878Z,18.87
2019-01-24T05:11:29.431Z,18.86
2019-01-24T05:12:32.906Z,18.84
2019-01-24T05:13:36.479Z,18.81
2019-01-24T05:14:40.013Z,18.78
2019-01-24T05:15:43.501Z,18.74
2019-01-24T05:16:47.094Z,18.71
2019-01-24T05:17:50.731Z,18.64
2019-01-24T05:18:54.296Z,18.64
2019-01-24T05:19:57.870Z,18.63
2019-01-24T05:21:01.492Z,18.62
2019-01-24T05:22:05.194Z,18.63
2019-01-24T05:23:08.802Z,18.63
2019-01-24T05:24:12.302Z,18.60
2019-01-24T05:25:17.248Z,18.62
2019-01-24T05:26:20.829Z,18.63
2019-01-24T05:27:24.335Z,18.67
2019-01-24T05:28:27.886Z,18.67
2019-01-24T05:29:31.373Z,18.73
2019-01-24T05:30:34.973Z,18.74
2019-01-24T05:31:38.466Z,18.80
2019-01-24T05:32:42.028Z,18.86
2019-01-24T05:33:45.957Z,18.93
2019-01-24T05:34:49.529Z,18.96
2019-01-24T05:35:53.611Z,18.96
2019-01-24T05:37:04.847Z,18.94
2019-01-24T05:38:08.840Z,18.95
2019-01-24T05:39:12.553Z,18.92
2019-01-24T05:40:16.346Z,18.92
2019-01-24T05:41:19.885Z,18.89
2019-01-24T05:42:23.440Z,18.82
2019-01-24T05:43:26.891Z,18.81
2019-01-24T05:44:30.525Z,18.75
2019-01-24T05:45:34.055Z,18.72
2019-01-24T05:46:37.579Z,18.68
2019-01-24T05:47:41.236Z,18.65
2019-01-24T05:48:44.829Z,18.60
2019-01-24T05:49:48.383Z,18.57
2019-01-24T05:50:53.586Z,18.53
2019-01-24T05:51:57.134Z,18.47
2019-01-24T05:53:00.637Z,18.45
2019-01-24T05:54:04.384Z,18.46
2019-01-24T05:55:10.100Z,18.50
2019-01-24T05:56:13.598Z,18.49
2019-01-24T05:57:17.270Z,18.52
2019-01-24T05:58:20.752Z,18.50
2019-01-24T05:59:24.318Z,18.52
2019-01-24T06:00:37.998Z,18.53
2019-01-24T06:01:41.676Z,18.57
2019-01-24T06:02:45.428Z,18.54
2019-01-24T06:03:49.027Z,18.56
2019-01-24T06:04:52.558Z,18.54
2019-01-24T06:05:56.146Z,18.58
2019-01-24T06:06:59.802Z,18.63
2019-01-24T06:08:03.321Z,18.67
2019-01-24T06:09:07.837Z,18.72
2019-01-24T06:10:13.969Z,18.73
2019-01-24T06:11:17.505Z,18.75
2019-01-24T06:12:21.178Z,18.78
2019-01-24T06:13:24.694Z,18.79
2019-01-24T06:14:28.180Z,18.81
2019-01-24T06:15:31.822Z,18.79
2019-01-24T06:16:35.351Z,18.80
2019-01-24T06:17:38.859Z,18.80
2019-01-24T06:18:42.404Z,18.79
2019-01-24T06:19:45.989Z,18.78
2019-01-24T06:20:49.481Z,18.76
2019-01-24T06:21:53.044Z,18.70
2019-01-24T06:22:56.626Z,18.64
2019-01-24T06:24:00.217Z,18.61
2019-01-24T06:25:05.264Z,18.56
2019-01-24T06:26:08.842Z,18.56
2019-01-24T06:27:12.342Z,18.58
2019-01-24T06:28:15.922Z,18.58
2019-01-24T06:29:19.586Z,18.58
2019-01-24T06:30:23.722Z,18.62
2019-01-24T06:31:27.311Z,18.66
2019-01-24T06:32:30.865Z,18.62
2019-01-24T06:33:34.362Z,18.57
2019-01-24T06:34:37.892Z,18.53
2019-01-24T06:35:41.677Z,18.48
2019-01-24T06:36:45.178Z,18.43
2019-01-24T06:37:48.880Z,18.39
2019-01-24T06:38:52.373Z,18.35
2019-01-24T06:39:55.980Z,18.30
2019-01-24T06:40:59.536Z,18.25
2019-01-24T06:42:03.118Z,18.19
2019-01-24T06:43:06.693Z,18.15
2019-01-24T06:44:10.326Z,18.10
2019-01-24T06:45:16.748Z,18.05
2019-01-24T06:46:20.302Z,18.01
2019-01-24T06:47:23.878Z,17.94
2019-01-24T06:48:27.497Z,17.89
2019-01-24T06:49:30.942Z,17.84
2019-01-24T06:50:34.479Z,17.77
2019-01-24T06:51:37.974Z,17.70
2019-01-24T06:52:41.677Z,17.62
2019-01-24T06:53:45.140Z,17.58
2019-01-24T06:54:48.711Z,17.51
2019-01-24T06:55:52.328Z,17.48
2019-01-24T06:56:55.962Z,17.45
2019-01-24T06:57:59.529Z,17.42
2019-01-24T06:59:03.038Z,17.39
2019-01-24T07:00:20.396Z,17.37
2019-01-24T07:01:23.948Z,17.34
2019-01-24T07:02:27.512Z,17.32
2019-01-24T07:03:31.044Z,17.29
2019-01-24T07:04:34.545Z,17.29
2019-01-24T07:05:38.150Z,17.31
2019-01-24T07:06:41.734Z,17.32
2019-01-24T07:07:45.379Z,17.32
2019-01-24T07:08:48.863Z,17.37
2019-01-24T07:09:52.453Z,17.36
2019-01-24T07:10:56.105Z,17.35
2019-01-24T07:11:59.716Z,17.36
2019-01-24T07:13:03.984Z,17.36
2019-01-24T07:14:07.787Z,17.36
2019-01-24T07:15:14.305Z,17.39
2019-01-24T07:16:17.872Z,17.41
2019-01-24T07:17:21.410Z,17.44
2019-01-24T07:18:25.005Z,17.51
2019-01-24T07:19:28.529Z,17.56
2019-01-24T07:20:32.108Z,17.58
2019-01-24T07:21:35.591Z,17.59
2019-01-24T07:22:39.636Z,17.58
2019-01-24T07:23:43.105Z,17.61
2019-01-24T07:24:46.669Z,17.62
2019-01-24T07:25:50.165Z,17.61
2019-01-24T07:26:53.663Z,17.59
2019-01-24T07:27:57.250Z,17.58
2019-01-24T07:29:00.780Z,17.59
2019-01-24T07:30:07.313Z,17.56
2019-01-24T07:31:10.848Z,17.57
2019-01-24T07:32:14.400Z,17.55
2019-01-24T07:33:17.924Z,17.53
2019-01-24T07:34:21.507Z,17.52
2019-01-24T07:35:25.057Z,17.53
2019-01-24T07:36:28.719Z,17.49
2019-01-24T07:37:32.228Z,17.49
2019-01-24T07:38:35.808Z,17.50
2019-01-24T07:39:39.380Z,17.49
2019-01-24T07:40:42.909Z,17.48
2019-01-24T07:41:46.512Z,17.45
2019-01-24T07:42:50.555Z,17.46
2019-01-24T07:43:54.125Z,17.44
2019-01-24T07:44:57.615Z,17.41
2019-01-24T07:46:01.190Z,17.43
2019-01-24T07:47:04.818Z,17.41
2019-01-24T07:48:08.463Z,17.38
2019-01-24T07:49:11.970Z,17.37
2019-01-24T07:50:15.615Z,17.34
2019-01-24T07:51:19.158Z,17.32
2019-01-24T07:52:22.676Z,17.29
2019-01-24T07:53:26.191Z,17.27
2019-01-24T07:54:29.709Z,17.23
2019-01-24T07:55:33.317Z,17.18
2019-01-24T07:56:36.906Z,17.18
2019-01-24T07:57:42.537Z,17.12
2019-01-24T07:58:46.116Z,17.15
2019-01-24T07:59:49.647Z,17.15
2019-01-24T08:00:54.759Z,17.15
2019-01-24T08:01:58.286Z,17.16
2019-01-24T08:03:01.878Z,17.15
2019-01-24T08:04:05.609Z,17.15
2019-01-24T08:05:11.543Z,17.14
2019-01-24T08:06:15.138Z,17.13
2019-01-24T08:07:18.689Z,17.11
2019-01-24T08:08:22.272Z,17.10
2019-01-24T08:09:25.856Z,17.07
2019-01-24T08:10:29.521Z,17.06
2019-01-24T08:11:33.104Z,17.03
2019-01-24T08:12:36.666Z,17.03
2019-01-24T08:13:40.188Z,17.00
2019-01-24T08:14:43.818Z,16.97
2019-01-24T08:15:47.503Z,16.96
2019-01-24T08:16:51.025Z,16.96
2019-01-24T08:17:54.671Z,16.93
2019-01-24T08:18:58.167Z,16.91
2019-01-24T08:20:01.753Z,16.90
2019-01-24T08:21:05.507Z,16.89
2019-01-24T08:22:09.109Z,16.90
2019-01-24T08:23:12.593Z,16.88
2019-01-24T08:24:16.099Z,16.90
2019-01-24T08:25:19.880Z,16.89
2019-01-24T08:26:23.456Z,16.89
2019-01-24T08:27:26.997Z,16.89
2019-01-24T08:28:30.603Z,16.91
2019-01-24T08:29:34.221Z,16.90
2019-01-24T08:30:37.825Z,16.88
2019-01-24T08:31:41.322Z,16.85
2019-01-24T08:32:45.023Z,16.84
2019-01-24T08:33:48.537Z,16.83
2019-01-24T08:34:52.168Z,16.82
2019-01-24T08:35:55.730Z,16.81
2019-01-24T08:36:59.270Z,16.79
2019-01-24T08:38:03.020Z,16.78
2019-01-24T08:39:08.546Z,16.75
2019-01-24T08:40:17.590Z,16.75
2019-01-24T08:41:21.206Z,16.74
2019-01-24T08:42:24.714Z,16.74
2019-01-24T08:43:28.274Z,16.73
2019-01-24T08:44:31.859Z,16.74
2019-01-24T08:45:35.410Z,16.76
2019-01-24T08:46:38.966Z,16.73
2019-01-24T08:47:42.554Z,16.75
2019-01-24T08:48:46.038Z,16.74
2019-01-24T08:49:49.553Z,16.73
2019-01-24T08:50:54.727Z,16.73
2019-01-24T08:51:58.275Z,16.71
2019-01-24T08:53:01.794Z,16.66
2019-01-24T08:54:05.571Z,16.70
2019-01-24T08:55:12.127Z,16.69
2019-01-24T08:56:15.607Z,16.65
2019-01-24T08:57:19.228Z,16.66
2019-01-24T08:58:22.748Z,16.64
2019-01-24T08:59:29.755Z,16.62
2019-01-24T09:00:31.570Z,16.60
2019-01-24T09:01:35.101Z,16.59
2019-01-24T09:02:38.604Z,16.58
2019-01-24T09:03:43.110Z,16.56
2019-01-24T09:04:46.622Z,16.54
2019-01-24T09:05:50.132Z,16.52
2019-01-24T09:06:53.623Z,16.51
2019-01-24T09:07:57.385Z,16.51
2019-01-24T09:09:00.967Z,16.50
2019-01-24T09:10:07.718Z,16.51
2019-01-24T09:11:11.201Z,16.51
2019-01-24T09:12:14.767Z,16.52
2019-01-24T09:13:18.361Z,16.53
2019-01-24T09:14:21.916Z,16.53
2019-01-24T09:15:25.742Z,16.53
2019-01-24T09:16:29.283Z,16.53
2019-01-24T09:17:32.852Z,16.53
2019-01-24T09:18:36.373Z,16.53
2019-01-24T09:19:39.896Z,16.52
2019-01-24T09:20:43.442Z,16.52
2019-01-24T09:21:46.957Z,16.51
2019-01-24T09:22:55.219Z,16.50
2019-01-24T09:23:55.857Z,16.50
2019-01-24T09:24:59.361Z,16.48
2019-01-24T09:26:02.928Z,16.47
2019-01-24T09:27:06.552Z,16.45
2019-01-24T09:28:14.789Z,16.41
2019-01-24T09:29:15.573Z,16.47
2019-01-24T09:30:24.793Z,16.47
2019-01-24T09:31:28.334Z,16.47
2019-01-24T09:32:31.814Z,16.50
2019-01-24T09:33:35.307Z,16.52
2019-01-24T09:34:38.999Z,16.54
2019-01-24T09:35:42.632Z,16.59
2019-01-24T09:36:46.222Z,16.56
2019-01-24T09:37:50.587Z,16.56
2019-01-24T09:38:54.152Z,16.56
2019-01-24T09:39:57.676Z,16.57
2019-01-24T09:41:01.241Z,16.55
2019-01-24T09:42:04.882Z,16.54
2019-01-24T09:43:08.450Z,16.55
2019-01-24T09:44:12.010Z,16.54
2019-01-24T09:45:20.966Z,16.53
2019-01-24T09:46:24.482Z,16.52
2019-01-24T09:47:27.958Z,16.52
2019-01-24T09:48:31.534Z,16.51
2019-01-24T09:49:35.031Z,16.49
2019-01-24T09:50:38.537Z,16.52
2019-01-24T09:51:42.052Z,16.55
2019-01-24T09:52:45.615Z,16.56
2019-01-24T09:53:49.111Z,16.57
2019-01-24T09:54:52.623Z,16.58
2019-01-24T09:55:56.212Z,16.60
2019-01-24T09:56:59.795Z,16.60
2019-01-24T09:58:03.790Z,16.60
2019-01-24T09:59:07.521Z,16.60
2019-01-24T10:00:28.074Z,16.59
2019-01-24T10:01:31.631Z,16.59
2019-01-24T10:02:35.207Z,16.57
2019-01-24T10:03:38.789Z,16.56
2019-01-24T10:04:42.285Z,16.55
2019-01-24T10:05:45.785Z,16.54
2019-01-24T10:06:50.622Z,16.54
2019-01-24T10:07:54.468Z,16.53
2019-01-24T10:08:57.970Z,16.51
2019-01-24T10:10:01.453Z,16.50
2019-01-24T10:11:05.169Z,16.51
2019-01-24T10:12:08.793Z,16.55
2019-01-24T10:13:12.343Z,16.54
2019-01-24T10:14:15.921Z,16.60
2019-01-24T10:15:20.561Z,16.61
2019-01-24T10:16:24.198Z,16.63
2019-01-24T10:17:27.817Z,16.63
2019-01-24T10:18:31.406Z,16.64
2019-01-24T10:19:34.956Z,16.64
2019-01-24T10:20:38.528Z,16.63
2019-01-24T10:21:42.084Z,16.62
2019-01-24T10:22:45.851Z,16.62
2019-01-24T10:23:49.359Z,16.60
2019-01-24T10:24:52.985Z,16.59
2019-01-24T10:25:56.519Z,16.56
2019-01-24T10:27:00.099Z,16.55
2019-01-24T10:28:03.850Z,16.54
2019-01-24T10:29:07.434Z,16.51
2019-01-24T10:30:14.457Z,16.53
2019-01-24T10:31:18.029Z,16.52
2019-01-24T10:32:21.623Z,16.54
2019-01-24T10:33:25.115Z,16.59
2019-01-24T10:34:28.768Z,16.63
2019-01-24T10:35:32.325Z,16.62
2019-01-24T10:36:35.818Z,16.66
2019-01-24T10:37:39.468Z,16.65
2019-01-24T10:38:42.956Z,16.65
2019-01-24T10:39:46.530Z,16.66
2019-01-24T10:40:50.158Z,16.65
2019-01-24T10:41:53.633Z,16.63
2019-01-24T10:42:57.393Z,16.62
2019-01-24T10:44:00.873Z,16.61
2019-01-24T10:45:06.994Z,16.58
2019-01-24T10:46:10.633Z,16.56
2019-01-24T10:47:14.177Z,16.54
2019-01-24T10:48:17.777Z,16.53
2019-01-24T10:49:21.409Z,16.51
2019-01-24T10:50:28.903Z,16.51
2019-01-24T10:51:32.414Z,16.51
2019-01-24T10:52:35.899Z,16.56
2019-01-24T10:53:39.475Z,16.57
2019-01-24T10:54:43.049Z,16.61
2019-01-24T10:55:46.640Z,16.63
2019-01-24T10:56:50.151Z,16.63
2019-01-24T10:57:55.503Z,16.63
2019-01-24T10:58:59.143Z,16.62
2019-01-24T11:00:02.861Z,16.64
2019-01-24T11:01:06.654Z,16.62
2019-01-24T11:02:10.781Z,16.61
2019-01-24T11:03:14.532Z,16.61
2019-01-24T11:04:18.037Z,16.61
2019-01-24T11:05:21.609Z,16.59
2019-01-24T11:06:25.194Z,16.57
2019-01-24T11:07:28.866Z,16.54
2019-01-24T11:08:32.410Z,16.53
2019-01-24T11:09:35.913Z,16.50
2019-01-24T11:10:39.533Z,16.50
2019-01-24T11:11:43.046Z,16.52
2019-01-24T11:12:46.973Z,16.54
2019-01-24T11:13:50.612Z,16.58
2019-01-24T11:14:54.155Z,16.58
2019-01-24T11:15:57.713Z,16.60
2019-01-24T11:17:01.236Z,16.63
2019-01-24T11:18:06.572Z,16.65
2019-01-24T11:19:10.199Z,16.65
2019-01-24T11:20:16.459Z,16.66
2019-01-24T11:21:20.051Z,16.66
2019-01-24T11:22:23.605Z,16.62
2019-01-24T11:23:27.135Z,16.62
2019-01-24T11:24:30.737Z,16.61
2019-01-24T11:25:34.296Z,16.61
2019-01-24T11:26:37.842Z,16.57
2019-01-24T11:27:41.410Z,16.55
2019-01-24T11:28:44.937Z,16.53
2019-01-24T11:29:48.496Z,16.50
2019-01-24T11:30:53.144Z,16.49
2019-01-24T11:31:56.693Z,16.51
2019-01-24T11:33:00.437Z,16.53
2019-01-24T11:34:04.334Z,16.55
2019-01-24T11:35:11.114Z,16.60
2019-01-24T11:36:14.686Z,16.62
2019-01-24T11:37:18.227Z,16.62
2019-01-24T11:38:21.804Z,16.63
2019-01-24T11:39:25.410Z,16.65
2019-01-24T11:40:29.194Z,16.66
2019-01-24T11:41:32.841Z,16.66
2019-01-24T11:42:36.435Z,16.65
2019-01-24T11:43:40.004Z,16.64
2019-01-24T11:44:43.489Z,16.63
2019-01-24T11:45:47.058Z,16.60
2019-01-24T11:46:50.650Z,16.58
2019-01-24T11:47:54.217Z,16.55
2019-01-24T11:48:57.720Z,16.54
2019-01-24T11:50:01.184Z,16.54
2019-01-24T11:51:04.818Z,16.53
2019-01-24T11:52:08.354Z,16.55
2019-01-24T11:53:11.849Z,16.57
2019-01-24T11:54:15.395Z,16.58
2019-01-24T11:55:20.824Z,16.61
2019-01-24T11:56:24.384Z,16.62
2019-01-24T11:57:27.895Z,16.64
2019-01-24T11:58:31.414Z,16.67
2019-01-24T11:59:34.901Z,16.64
2019-01-24T12:00:41.040Z,16.68
2019-01-24T12:01:44.689Z,16.66
2019-01-24T12:02:48.404Z,16.63
2019-01-24T12:03:51.913Z,16.64
2019-01-24T12:04:55.485Z,16.60
2019-01-24T12:05:58.988Z,16.60
2019-01-24T12:07:04.178Z,16.58
2019-01-24T12:08:08.348Z,16.56
2019-01-24T12:09:12.131Z,16.56
2019-01-24T12:10:18.428Z,16.53
2019-01-24T12:11:22.001Z,16.53
2019-01-24T12:12:25.490Z,16.58
2019-01-24T12:13:29.002Z,16.60
2019-01-24T12:14:32.498Z,16.59
2019-01-24T12:15:36.073Z,16.62
2019-01-24T12:16:39.575Z,16.63
2019-01-24T12:17:43.211Z,16.67
2019-01-24T12:18:46.717Z,16.69
2019-01-24T12:19:50.223Z,16.69
2019-01-24T12:20:56.148Z,16.68
2019-01-24T12:21:59.714Z,16.66
2019-01-24T12:23:03.282Z,16.67
2019-01-24T12:24:06.862Z,16.65
2019-01-24T12:25:11.191Z,16.63
2019-01-24T12:26:14.677Z,16.61
2019-01-24T12:27:18.161Z,16.58
2019-01-24T12:28:21.688Z,16.56
2019-01-24T12:29:25.195Z,16.54
2019-01-24T12:30:33.576Z,16.53
2019-01-24T12:31:37.168Z,16.52
2019-01-24T12:32:40.628Z,16.53
2019-01-24T12:33:44.194Z,16.56
2019-01-24T12:34:47.733Z,16.60
2019-01-24T12:35:51.391Z,16.62
2019-01-24T12:36:54.946Z,16.63
2019-01-24T12:37:58.667Z,16.67
2019-01-24T12:39:02.223Z,16.67
2019-01-24T12:40:08.624Z,16.68
2019-01-24T12:41:12.182Z,16.66
2019-01-24T12:42:15.843Z,16.66
2019-01-24T12:43:19.503Z,16.62
2019-01-24T12:44:23.091Z,16.63
2019-01-24T12:45:31.922Z,16.63
2019-01-24T12:46:35.427Z,16.60
2019-01-24T12:47:39.004Z,16.59
2019-01-24T12:48:42.557Z,16.57
2019-01-24T12:49:46.110Z,16.56
2019-01-24T12:50:49.723Z,16.54
2019-01-24T12:51:53.215Z,16.54
2019-01-24T12:52:56.911Z,16.54
2019-01-24T12:54:00.493Z,16.61
2019-01-24T12:55:04.971Z,16.61
2019-01-24T12:56:08.579Z,16.61
2019-01-24T12:57:12.127Z,16.66
2019-01-24T12:58:15.589Z,16.65
2019-01-24T12:59:19.183Z,16.67
2019-01-24T13:00:36.551Z,16.68
2019-01-24T13:01:40.187Z,16.67
2019-01-24T13:02:43.697Z,16.66
2019-01-24T13:03:47.418Z,16.64
2019-01-24T13:04:50.887Z,16.64
2019-01-24T13:05:54.398Z,16.62
2019-01-24T13:06:57.886Z,16.60
2019-01-24T13:08:01.573Z,16.57
2019-01-24T13:09:07.136Z,16.55
2019-01-24T13:10:16.534Z,16.53
2019-01-24T13:11:20.039Z,16.52
2019-01-24T13:12:23.542Z,16.54
2019-01-24T13:13:27.061Z,16.56
2019-01-24T13:14:30.569Z,16.58
2019-01-24T13:15:34.478Z,16.61
2019-01-24T13:16:37.982Z,16.63
2019-01-24T13:17:41.493Z,16.65
2019-01-24T13:18:45.043Z,16.64
2019-01-24T13:19:48.546Z,16.68
2019-01-24T13:20:53.443Z,16.68
2019-01-24T13:21:56.903Z,16.68
2019-01-24T13:23:01.077Z,16.66
2019-01-24T13:24:05.104Z,16.64
2019-01-24T13:25:12.316Z,16.61
2019-01-24T13:26:16.100Z,16.62
2019-01-24T13:27:19.905Z,16.59
2019-01-24T13:28:23.413Z,16.57
2019-01-24T13:29:26.886Z,16.55
2019-01-24T13:30:32.446Z,16.53
2019-01-24T13:31:36.047Z,16.54
2019-01-24T13:32:39.676Z,16.55
2019-01-24T13:33:43.202Z,16.55
2019-01-24T13:34:46.739Z,16.56
2019-01-24T13:35:50.356Z,16.60
2019-01-24T13:36:53.885Z,16.63
2019-01-24T13:37:57.626Z,16.65
2019-01-24T13:39:01.272Z,16.64
2019-01-24T13:40:10.188Z,16.65
2019-01-24T13:41:13.921Z,16.66
2019-01-24T13:42:17.587Z,16.64